Time;durP1;ratioP1;P1;durP2;ratioP2;P2;SDS_P1;SDS_P2;PMS_P1;PMS_P2;Temp;Humidity;BMP_temperature;BMP_pressure;BME280_temperature;BME280_humidity;BME280_pressure;Samples;Min_cycle;Max_cycle;Signal;HPM_P1;HPM_P2
2023/09/05 00:02:14;;;;;;;7.17;3.23;;;15.10;27.00;;;;;;5116058;27;46691;-79
2023/09/05 00:04:44;;;;;;;5.87;2.67;;;15.10;27.80;;;;;;5130041;27;46724;-82
2023/09/05 00:07:10;;;;;;;6.40;3.50;;;15.10;27.80;;;;;;5128338;27;46433;-81
2023/09/05 00:09:36;;;;;;;5.93;3.27;;;15.00;27.90;;;;;;5129862;27;46510;-81
2023/09/05 00:12:05;;;;;;;7.10;2.97;;;15.10;28.00;;;;;;5132236;27;46214;-80
2023/09/05 00:14:31;;;;;;;5.67;3.10;;;14.90;28.00;;;;;;5127793;27;47830;-80
2023/09/05 00:16:56;;;;;;;6.83;2.97;;;15.00;28.10;;;;;;5129071;27;46502;-82
2023/09/05 00:19:22;;;;;;;14.83;3.20;;;15.00;28.20;;;;;;5130676;27;46488;-80
2023/09/05 00:21:47;;;;;;;6.40;3.30;;;14.90;28.30;;;;;;5130963;27;46606;-80
2023/09/05 00:24:41;;;;;;;7.40;2.83;;;14.90;28.40;;;;;;5128621;27;46613;-79
2023/09/05 00:27:09;;;;;;;4.87;2.90;;;14.80;28.50;;;;;;5131294;27;46629;-80
2023/09/05 00:29:35;;;;;;;15.50;3.60;;;14.80;28.40;;;;;;5112429;27;47494;-80
2023/09/05 00:32:02;;;;;;;5.80;3.07;;;15.00;28.70;;;;;;5129470;27;46570;-79
2023/09/05 00:34:29;;;;;;;6.30;3.67;;;14.80;28.70;;;;;;5129057;27;47296;-80
2023/09/05 00:36:54;;;;;;;8.80;3.77;;;14.70;28.70;;;;;;5129342;27;46459;-82
2023/09/05 00:39:20;;;;;;;8.73;3.97;;;14.70;28.80;;;;;;5129450;27;46555;-80
2023/09/05 00:41:46;;;;;;;9.60;4.20;;;14.70;29.00;;;;;;5129986;27;46829;-80
2023/09/05 00:44:13;;;;;;;7.13;3.90;;;14.70;29.30;;;;;;5131567;27;46482;-81
2023/09/05 00:46:42;;;;;;;6.10;3.10;;;14.60;29.30;;;;;;5108868;27;46544;-81
2023/09/05 00:49:08;;;;;;;6.00;3.47;;;14.60;29.30;;;;;;5128199;27;45889;-82
2023/09/05 00:51:34;;;;;;;6.30;3.40;;;14.60;29.30;;;;;;5126593;27;46600;-81
2023/09/05 00:54:02;;;;;;;6.30;2.97;;;14.50;29.30;;;;;;5121476;27;46552;-80
2023/09/05 00:56:27;;;;;;;8.40;4.20;;;14.60;29.30;;;;;;5129189;27;46466;-82
2023/09/05 00:58:53;;;;;;;5.63;3.43;;;14.50;29.30;;;;;;5126752;27;45982;-82
2023/09/05 01:01:19;;;;;;;11.03;3.60;;;14.40;28.80;;;;;;5128086;27;46673;-82
2023/09/05 01:03:44;;;;;;;6.60;3.60;;;14.40;29.60;;;;;;5128544;27;46898;-82
2023/09/05 01:06:19;;;;;;;8.37;4.00;;;14.40;29.80;;;;;;5129741;27;46410;-82
2023/09/05 01:08:55;;;;;;;8.10;4.03;;;14.30;30.00;;;;;;5121263;27;46528;-80
2023/09/05 01:11:22;;;;;;;5.73;3.57;;;;;;;;;;5126725;27;46484;-78
2023/09/05 01:13:47;;;;;;;9.17;3.80;;;14.30;29.50;;;;;;5129367;27;47518;-81
2023/09/05 01:16:13;;;;;;;5.30;3.30;;;14.40;30.50;;;;;;5128787;27;46454;-80
2023/09/05 01:18:40;;;;;;;6.30;3.60;;;14.30;29.70;;;;;;5127215;27;46686;-84
2023/09/05 01:21:35;;;;;;;6.97;3.40;;;14.30;30.80;;;;;;5128588;27;46684;-82
2023/09/05 01:24:20;;;;;;;8.50;4.00;;;14.20;30.90;;;;;;5131252;27;47388;-81
2023/09/05 01:26:46;;;;;;;5.80;3.73;;;14.20;31.10;;;;;;5126615;27;46457;-82
2023/09/05 01:29:15;;;;;;;11.80;4.03;;;14.30;31.60;;;;;;5110325;27;46552;-82
2023/09/05 01:31:41;;;;;;;6.60;3.73;;;14.20;31.90;;;;;;5128805;27;46150;-82
2023/09/05 01:34:07;;;;;;;8.27;3.80;;;14.10;32.00;;;;;;5111592;27;48247;-80
2023/09/05 01:36:32;;;;;;;7.17;4.17;;;14.20;32.30;;;;;;5126508;27;46610;-81
2023/09/05 01:38:58;;;;;;;7.50;3.50;;;14.10;32.50;;;;;;5108994;27;46429;-80
2023/09/05 01:41:24;;;;;;;7.10;3.57;;;14.10;32.70;;;;;;5127661;27;45949;-81
2023/09/05 01:43:49;;;;;;;6.53;3.70;;;14.00;33.00;;;;;;5126837;27;46489;-82
2023/09/05 01:46:15;;;;;;;8.83;3.87;;;14.00;33.50;;;;;;5131584;27;46826;-81
2023/09/05 01:48:41;;;;;;;5.97;3.70;;;14.00;33.90;;;;;;5127378;27;45811;-82
2023/09/05 01:51:07;;;;;;;9.23;3.97;;;14.00;34.50;;;;;;5127774;27;46482;-80
2023/09/05 01:53:32;;;;;;;5.67;3.40;;;14.10;34.80;;;;;;5125071;27;46766;-80
2023/09/05 01:55:58;;;;;;;8.57;3.93;;;14.00;35.00;;;;;;5128798;27;46409;-82
2023/09/05 01:58:24;;;;;;;8.73;4.10;;;14.00;35.20;;;;;;5128785;27;46871;-82
2023/09/05 02:00:50;;;;;;;6.60;3.70;;;14.00;34.40;;;;;;5128426;27;46702;-78
2023/09/05 02:03:15;;;;;;;7.90;4.60;;;14.20;35.60;;;;;;5120365;27;47021;-82
2023/09/05 02:05:41;;;;;;;8.47;4.70;;;14.00;35.50;;;;;;5128353;27;46379;-80
2023/09/05 02:08:06;;;;;;;7.03;3.87;;;14.00;35.80;;;;;;5128671;27;46424;-83
2023/09/05 02:10:32;;;;;;;5.87;3.80;;;14.10;37.20;;;;;;5128386;27;46330;-83
2023/09/05 02:12:58;;;;;;;9.97;4.33;;;14.00;34.90;;;;;;5128718;27;46972;-83
2023/09/05 02:15:23;;;;;;;7.40;4.10;;;14.00;36.10;;;;;;5130262;27;46760;-81
2023/09/05 02:17:49;;;;;;;6.90;4.03;;;13.90;35.00;;;;;;5125660;27;46913;-81
2023/09/05 02:20:15;;;;;;;7.17;3.90;;;13.90;36.30;;;;;;5127510;27;46421;-81
2023/09/05 02:22:43;;;;;;;7.17;3.27;;;13.90;35.40;;;;;;5124382;27;46605;-82
2023/09/05 02:25:08;;;;;;;6.23;4.00;;;14.10;36.60;;;;;;5126307;27;48126;-84
2023/09/05 02:27:34;;;;;;;6.57;3.63;;;14.10;36.80;;;;;;5123609;27;46431;-82
2023/09/05 02:30:01;;;;;;;10.17;4.10;;;14.00;36.70;;;;;;5109944;27;46904;-82
2023/09/05 02:32:29;;;;;;;7.17;4.10;;;13.90;35.90;;;;;;5108870;27;47698;-80
2023/09/05 02:34:56;;;;;;;8.13;3.83;;;13.90;37.00;;;;;;5128316;27;46799;-81
2023/09/05 02:37:22;;;;;;;9.97;4.27;;;14.00;37.30;;;;;;5129055;27;46975;-81
2023/09/05 02:39:48;;;;;;;7.07;4.03;;;13.80;37.10;;;;;;5126396;27;45826;-80
2023/09/05 02:42:13;;;;;;;7.80;4.23;;;13.80;36.60;;;;;;5110013;27;49265;-84
2023/09/05 02:44:39;;;;;;;11.93;3.97;;;13.80;37.90;;;;;;5127627;27;46557;-82
2023/09/05 02:47:04;;;;;;;8.87;4.20;;;13.80;37.70;;;;;;5110388;27;46557;-81
2023/09/05 02:49:31;;;;;;;11.23;4.90;;;13.80;37.80;;;;;;5127994;27;46490;-81
2023/09/05 02:51:57;;;;;;;12.43;4.77;;;13.70;38.00;;;;;;5130760;27;46506;-82
2023/09/05 02:54:23;;;;;;;7.50;4.30;;;13.70;38.10;;;;;;5126537;27;46654;-79
2023/09/05 02:56:49;;;;;;;6.90;4.00;;;13.60;38.30;;;;;;5127722;27;46777;-80
2023/09/05 02:59:14;;;;;;;9.97;4.33;;;13.60;38.40;;;;;;5109558;27;46685;-80
2023/09/05 03:01:40;;;;;;;8.90;4.70;;;13.50;38.80;;;;;;5130314;27;46803;-77
2023/09/05 03:04:05;;;;;;;7.73;4.30;;;13.50;38.80;;;;;;5126631;27;46584;-80
2023/09/05 03:06:31;;;;;;;8.13;4.17;;;13.70;39.60;;;;;;5108014;27;46477;-80
2023/09/05 03:08:56;;;;;;;6.93;4.40;;;13.70;39.70;;;;;;5128149;27;46688;-80
2023/09/05 03:11:22;;;;;;;9.37;4.20;;;13.40;39.70;;;;;;5126357;27;47192;-79
2023/09/05 03:13:48;;;;;;;9.17;3.73;;;13.40;39.90;;;;;;5125400;27;46732;-80
2023/09/05 03:16:14;;;;;;;6.07;3.80;;;13.40;40.00;;;;;;5126424;27;46492;-80
2023/09/05 03:18:39;;;;;;;11.90;4.37;;;13.30;40.20;;;;;;5126152;27;46345;-80
2023/09/05 03:21:05;;;;;;;10.03;4.63;;;13.30;40.50;;;;;;5106313;27;48572;-81
2023/09/05 03:23:31;;;;;;;8.67;4.90;;;13.30;41.20;;;;;;5127288;27;46421;-79
2023/09/05 03:25:57;;;;;;;6.90;4.30;;;13.30;41.50;;;;;;5130448;27;46500;-82
2023/09/05 03:28:23;;;;;;;5.33;3.77;;;13.20;41.40;;;;;;5133703;27;46638;-81
2023/09/05 03:30:48;;;;;;;7.33;4.67;;;13.20;40.60;;;;;;5127484;27;46946;-79
2023/09/05 03:33:14;;;;;;;7.57;4.70;;;13.20;41.40;;;;;;5130171;27;45991;-80
2023/09/05 03:35:42;;;;;;;9.70;4.60;;;13.20;42.10;;;;;;5128939;27;46449;-80
2023/09/05 03:38:08;;;;;;;7.07;4.23;;;13.20;42.70;;;;;;5131101;27;46676;-80
2023/09/05 03:40:34;;;;;;;7.40;4.77;;;13.10;42.90;;;;;;5128855;27;46965;-80
2023/09/05 03:43:00;;;;;;;7.77;4.03;;;13.20;42.10;;;;;;5133035;27;46415;-79
2023/09/05 03:45:27;;;;;;;6.10;4.20;;;13.10;43.10;;;;;;5128976;27;46833;-80
2023/09/05 03:47:53;;;;;;;6.80;4.57;;;13.10;43.40;;;;;;5130440;27;47360;-81
2023/09/05 03:50:20;;;;;;;10.93;4.30;;;13.10;43.60;;;;;;5132080;27;46960;-81
2023/09/05 03:52:46;;;;;;;6.77;4.53;;;13.10;42.90;;;;;;5130177;27;46503;-80
2023/09/05 03:55:13;;;;;;;6.70;4.30;;;13.10;44.30;;;;;;5130042;27;46535;-80
2023/09/05 03:57:38;;;;;;;6.33;4.13;;;13.10;44.40;;;;;;5128517;27;46558;-79
2023/09/05 04:00:06;;;;;;;12.47;4.80;;;13.10;44.70;;;;;;5129218;27;46506;-81
2023/09/05 04:02:32;;;;;;;7.30;4.53;;;13.10;44.40;;;;;;5128377;27;46373;-79
2023/09/05 04:04:57;;;;;;;6.83;4.47;;;13.10;45.60;;;;;;5128556;27;47809;-81
2023/09/05 04:07:23;;;;;;;9.17;5.20;;;13.00;45.60;;;;;;5130645;27;46350;-80
2023/09/05 04:09:49;;;;;;;9.17;4.37;;;13.00;45.70;;;;;;5109618;27;49253;-80
2023/09/05 04:12:15;;;;;;;8.03;4.87;;;13.00;46.40;;;;;;5133153;27;46419;-80
2023/09/05 04:14:41;;;;;;;9.90;4.60;;;13.00;46.50;;;;;;5128271;27;46570;-79
2023/09/05 04:17:06;;;;;;;9.10;4.77;;;12.90;46.50;;;;;;5129093;27;46366;-78
2023/09/05 04:19:32;;;;;;;8.43;4.70;;;13.00;46.80;;;;;;5128852;27;47518;-80
2023/09/05 04:21:58;;;;;;;8.23;5.60;;;12.90;47.00;;;;;;5129552;27;46622;-80
2023/09/05 04:24:23;;;;;;;7.30;4.50;;;12.90;47.30;;;;;;5130109;27;46362;-81
2023/09/05 04:26:50;;;;;;;6.30;4.20;;;12.90;47.40;;;;;;5132478;27;46522;-79
2023/09/05 04:29:16;;;;;;;8.10;5.37;;;12.90;47.60;;;;;;5134130;27;46637;-81
2023/09/05 04:31:42;;;;;;;11.00;5.67;;;12.90;48.00;;;;;;5129578;27;46378;-81
2023/09/05 04:34:08;;;;;;;8.00;5.30;;;12.90;48.20;;;;;;5130679;27;46519;-80
2023/09/05 04:36:36;;;;;;;9.53;5.80;;;12.90;48.90;;;;;;5131001;27;46502;-81
2023/09/05 04:39:05;;;;;;;9.20;5.23;;;12.90;49.20;;;;;;5130937;27;46639;-78
2023/09/05 04:41:31;;;;;;;7.70;5.03;;;12.90;49.10;;;;;;5131667;27;46542;-80
2023/09/05 04:43:56;;;;;;;6.67;4.70;;;12.90;49.30;;;;;;5127565;27;46642;-80
2023/09/05 04:46:22;;;;;;;9.00;5.50;;;13.00;49.80;;;;;;5131260;27;46476;-80
2023/09/05 04:48:49;;;;;;;12.57;5.63;;;13.00;50.10;;;;;;5129343;27;46503;-80
2023/09/05 04:51:14;;;;;;;9.00;5.20;;;13.10;50.30;;;;;;5132150;27;46531;-80
2023/09/05 04:53:40;;;;;;;8.47;5.37;;;13.20;50.50;;;;;;5127728;27;45904;-80
2023/09/05 04:56:05;;;;;;;10.47;5.47;;;13.10;50.30;;;;;;5129191;27;46729;-81
2023/09/05 04:58:32;;;;;;;8.70;5.47;;;13.10;50.50;;;;;;5133082;27;46509;-81
2023/09/05 05:01:02;;;;;;;7.30;4.50;;;13.10;50.40;;;;;;5126638;27;46778;-80
2023/09/05 05:03:34;;;;;;;7.40;5.30;;;13.10;50.60;;;;;;5131350;27;46509;-80
2023/09/05 05:06:00;;;;;;;9.63;5.20;;;13.20;51.10;;;;;;5112352;27;46682;-80
2023/09/05 05:08:26;;;;;;;13.37;5.43;;;13.40;51.20;;;;;;5110583;27;48246;-80
2023/09/05 05:10:52;;;;;;;7.23;4.53;;;13.30;50.30;;;;;;5129139;27;46719;-80
2023/09/05 05:13:20;;;;;;;7.20;4.97;;;13.30;51.10;;;;;;5129575;27;45820;-81
2023/09/05 05:15:45;;;;;;;9.90;5.30;;;13.30;51.00;;;;;;5128096;27;46430;-79
2023/09/05 05:18:11;;;;;;;8.87;6.53;;;13.30;51.00;;;;;;5131208;27;46575;-80
2023/09/05 05:20:37;;;;;;;7.50;4.97;;;;;;;;;;5114724;27;46532;-79
2023/09/05 05:23:04;;;;;;;9.07;4.77;;;13.40;50.10;;;;;;5126321;27;47040;-81
2023/09/05 05:25:29;;;;;;;8.97;5.77;;;13.50;50.80;;;;;;5131280;27;46465;-81
2023/09/05 05:27:55;;;;;;;6.97;4.73;;;13.90;50.00;;;;;;5127749;27;46870;-79
2023/09/05 05:30:21;;;;;;;10.20;4.43;;;14.60;50.40;;;;;;5112764;27;46496;-79
2023/09/05 05:32:47;;;;;;;6.40;4.10;;;15.30;49.50;;;;;;5130859;27;46606;-81
2023/09/05 05:35:13;;;;;;;7.40;4.53;;;15.80;49.40;;;;;;5129900;27;46662;-78
2023/09/05 05:37:38;;;;;;;8.47;4.90;;;16.40;48.20;;;;;;5131541;27;47154;-80
2023/09/05 05:40:04;;;;;;;10.13;4.87;;;16.90;44.90;;;;;;5131955;27;46494;-80
2023/09/05 05:42:30;;;;;;;7.27;3.90;;;17.20;44.60;;;;;;5110427;27;46462;-80
2023/09/05 05:44:55;;;;;;;8.27;4.60;;;17.50;43.20;;;;;;5110498;27;46820;-80
2023/09/05 05:47:22;;;;;;;9.53;4.30;;;18.00;41.00;;;;;;5131320;27;46513;-80
2023/09/05 05:49:48;;;;;;;5.67;3.90;;;18.50;38.60;;;;;;5130946;27;46539;-80
2023/09/05 05:52:13;;;;;;;6.63;4.10;;;18.80;37.50;;;;;;5109002;27;46846;-80
2023/09/05 05:54:39;;;;;;;6.50;3.90;;;19.00;35.60;;;;;;5128169;27;46718;-81
2023/09/05 05:57:05;;;;;;;5.60;3.13;;;19.20;33.30;;;;;;5125113;27;46465;-79
2023/09/05 05:59:30;;;;;;;7.10;3.53;;;19.10;31.30;;;;;;5108491;27;46403;-80
2023/09/05 06:01:56;;;;;;;7.27;4.10;;;19.00;28.50;;;;;;5128585;27;45923;-82
2023/09/05 06:04:23;;;;;;;6.20;3.27;;;18.90;27.70;;;;;;5126222;27;46478;-81
2023/09/05 06:06:49;;;;;;;5.67;3.47;;;18.70;27.10;;;;;;5127731;27;46283;-79
2023/09/05 06:09:18;;;;;;;8.50;4.47;;;18.40;26.80;;;;;;5130632;27;46420;-80
2023/09/05 06:11:45;;;;;;;10.70;3.87;;;17.60;28.00;;;;;;5129339;27;46478;-80
2023/09/05 06:14:10;;;;;;;11.50;4.03;;;17.10;29.40;;;;;;5127238;27;46517;-81
2023/09/05 06:16:37;;;;;;;8.50;4.03;;;16.80;31.10;;;;;;5130558;27;46809;-83
2023/09/05 06:19:02;;;;;;;5.90;3.03;;;16.90;31.70;;;;;;5123874;27;46507;-82
2023/09/05 06:21:28;;;;;;;5.27;3.63;;;16.60;33.00;;;;;;5078824;27;47038;-79
2023/09/05 06:23:53;;;;;;;7.60;4.10;;;17.20;31.50;;;;;;5095378;27;47338;-78
2023/09/05 06:26:19;;;;;;;7.30;4.07;;;17.80;28.30;;;;;;5092301;27;47105;-81
2023/09/05 06:28:44;;;;;;;6.40;4.17;;;17.60;28.30;;;;;;5120139;27;46436;-77
2023/09/05 06:31:10;;;;;;;8.27;4.30;;;17.20;29.40;;;;;;5138451;27;46514;-80
2023/09/05 06:33:35;;;;;;;7.47;3.73;;;16.90;30.60;;;;;;5127046;27;46559;-79
2023/09/05 06:36:08;;;;;;;7.80;4.20;;;16.70;31.00;;;;;;5126722;27;46510;-79
2023/09/05 06:38:33;;;;;;;6.93;3.40;;;16.60;30.90;;;;;;5130173;27;46595;-78
2023/09/05 06:41:10;;;;;;;15.43;4.47;;;16.60;31.50;;;;;;5124988;27;46505;-79
2023/09/05 06:43:36;;;;;;;6.70;4.30;;;16.50;31.80;;;;;;5131514;27;46776;-80
2023/09/05 06:46:06;;;;;;;6.37;4.20;;;16.60;32.20;;;;;;5124066;27;47862;-82
2023/09/05 06:48:34;;;;;;;8.30;4.20;;;16.60;32.30;;;;;;5116809;27;46483;-80
2023/09/05 06:50:59;;;;;;;9.17;4.07;;;16.70;32.20;;;;;;5090454;27;46979;-78
2023/09/05 06:53:27;;;;;;;7.33;4.67;;;16.70;32.40;;;;;;5117098;27;47617;-81
2023/09/05 06:55:52;;;;;;;7.33;4.30;;;17.20;32.50;;;;;;5111134;27;48028;-81
2023/09/05 06:58:22;;;;;;;8.10;4.47;;;17.00;32.20;;;;;;5109484;27;46473;-80
2023/09/05 07:00:51;;;;;;;9.50;4.43;;;17.10;30.80;;;;;;5106184;27;47077;-79
2023/09/05 07:03:17;;;;;;;7.43;4.70;;;17.10;31.80;;;;;;5115435;27;47765;-83
2023/09/05 07:05:42;;;;;;;9.47;4.17;;;17.30;31.60;;;;;;5107791;27;48146;-79
2023/09/05 07:08:09;;;;;;;6.20;3.93;;;17.30;31.60;;;;;;5128544;27;46477;-81
2023/09/05 07:10:35;;;;;;;7.57;3.60;;;17.40;31.60;;;;;;5133242;27;46753;-78
2023/09/05 07:13:01;;;;;;;8.30;4.10;;;17.40;31.60;;;;;;5131066;27;46499;-79
2023/09/05 07:15:26;;;;;;;5.90;3.73;;;17.50;31.80;;;;;;5109970;27;48979;-80
2023/09/05 07:17:52;;;;;;;9.10;4.33;;;17.50;31.70;;;;;;5132142;27;46357;-81
2023/09/05 07:20:18;;;;;;;9.20;4.13;;;17.70;31.30;;;;;;5132953;27;46389;-80
2023/09/05 07:22:43;;;;;;;6.50;4.27;;;17.50;31.00;;;;;;5130719;27;46607;-80
2023/09/05 07:25:09;;;;;;;9.90;4.57;;;17.60;31.10;;;;;;5131151;27;46449;-79
2023/09/05 07:27:34;;;;;;;11.20;4.47;;;17.80;30.70;;;;;;5129242;27;46510;-79
2023/09/05 07:30:00;;;;;;;6.77;4.10;;;18.00;30.30;;;;;;5112435;27;46457;-80
2023/09/05 07:32:26;;;;;;;7.37;3.60;;;18.20;30.00;;;;;;5135078;27;46613;-80
2023/09/05 07:34:51;;;;;;;15.43;4.10;;;18.60;30.00;;;;;;5128135;27;46712;-80
2023/09/05 07:37:17;;;;;;;8.37;4.40;;;18.20;29.30;;;;;;5130284;27;46882;-79
2023/09/05 07:39:51;;;;;;;9.40;3.90;;;18.20;29.40;;;;;;5132750;27;46483;-78
2023/09/05 07:42:17;;;;;;;9.00;3.73;;;18.20;29.40;;;;;;5130581;27;47158;-79
2023/09/05 07:44:42;;;;;;;5.77;3.50;;;18.30;29.20;;;;;;5132959;27;46944;-80
2023/09/05 07:47:08;;;;;;;6.10;3.47;;;18.20;29.00;;;;;;5129681;27;47029;-81
2023/09/05 07:49:39;;;;;;;11.63;4.27;;;18.30;29.00;;;;;;5113345;27;46529;-79
2023/09/05 07:52:05;;;;;;;13.20;4.10;;;18.20;28.80;;;;;;5127368;27;46716;-79
2023/09/05 07:54:30;;;;;;;15.20;3.93;;;18.30;28.90;;;;;;5133746;27;46784;-80
2023/09/05 07:56:56;;;;;;;8.77;4.07;;;18.50;28.70;;;;;;5118593;27;46593;-78
2023/09/05 07:59:23;;;;;;;8.90;3.90;;;18.60;28.40;;;;;;5114784;27;46804;-79
2023/09/05 08:01:48;;;;;;;8.60;3.70;;;18.60;27.90;;;;;;5133614;27;46461;-81
2023/09/05 08:04:14;;;;;;;8.00;3.93;;;18.80;29.00;;;;;;5116664;27;48364;-81
2023/09/05 08:06:42;;;;;;;13.97;4.03;;;18.80;27.90;;;;;;5132312;27;46623;-80
2023/09/05 08:09:07;;;;;;;13.07;4.00;;;18.80;27.50;;;;;;5114369;27;46410;-80
2023/09/05 08:11:33;;;;;;;12.40;4.00;;;18.90;27.60;;;;;;5132578;27;46414;-79
2023/09/05 08:13:58;;;;;;;13.10;4.30;;;19.10;27.40;;;;;;5133006;27;46099;-79
2023/09/05 08:16:24;;;;;;;6.00;3.50;;;19.00;27.10;;;;;;5135099;27;46989;-82
2023/09/05 08:18:49;;;;;;;7.00;3.70;;;19.00;27.30;;;;;;5134440;27;46906;-80
2023/09/05 08:21:16;;;;;;;6.10;3.47;;;19.00;27.10;;;;;;5132842;27;46680;-81
2023/09/05 08:23:42;;;;;;;7.97;3.43;;;19.20;27.10;;;;;;5131464;27;47079;-79
2023/09/05 08:26:10;;;;;;;8.27;4.07;;;19.30;26.70;;;;;;5133466;27;46732;-80
2023/09/05 08:28:43;;;;;;;8.57;3.70;;;19.50;26.60;;;;;;5119602;27;46456;-81
2023/09/05 08:31:10;;;;;;;7.17;3.23;;;19.70;26.40;;;;;;5132161;27;46407;-78
2023/09/05 08:33:35;;;;;;;7.07;3.97;;;19.70;25.70;;;;;;5127912;27;47415;-79
2023/09/05 08:36:03;;;;;;;7.70;4.10;;;19.60;25.20;;;;;;5113597;27;46179;-82
2023/09/05 08:38:28;;;;;;;8.43;3.70;;;19.50;24.70;;;;;;5130659;27;46491;-81
2023/09/05 08:41:02;;;;;;;10.30;3.17;;;19.60;23.60;;;;;;5133934;27;46415;-81
2023/09/05 08:43:28;;;;;;;5.77;3.07;;;19.70;24.50;;;;;;5131732;27;46216;-77
2023/09/05 08:45:54;;;;;;;11.77;3.80;;;19.80;24.30;;;;;;5128112;27;46690;-78
2023/09/05 08:48:20;;;;;;;8.90;3.90;;;19.90;23.80;;;;;;5130560;27;46479;-79
2023/09/05 08:50:46;;;;;;;7.77;3.43;;;20.00;23.10;;;;;;5125962;27;46956;-80
2023/09/05 08:53:15;;;;;;;7.70;3.83;;;20.00;23.90;;;;;;5129163;27;47037;-81
2023/09/05 08:55:42;;;;;;;9.17;3.60;;;20.00;23.70;;;;;;5128945;27;45962;-80
2023/09/05 08:58:17;;;;;;;11.10;3.63;;;20.10;23.60;;;;;;5112793;27;46762;-81
2023/09/05 09:00:43;;;;;;;8.60;3.70;;;20.20;21.70;;;;;;5111658;27;46750;-81
2023/09/05 09:03:09;;;;;;;6.70;3.60;;;20.20;22.60;;;;;;5129299;27;47182;-81
2023/09/05 09:05:38;;;;;;;7.60;3.50;;;20.60;22.90;;;;;;5128731;27;47127;-79
2023/09/05 09:08:04;;;;;;;5.77;2.93;;;20.40;22.70;;;;;;5127272;27;46504;-78
2023/09/05 09:10:30;;;;;;;7.17;3.13;;;20.50;22.80;;;;;;5131514;27;46721;-82
2023/09/05 09:13:15;;;;;;;4.57;3.13;;;20.60;22.00;;;;;;5129473;27;46541;-80
2023/09/05 09:15:44;;;;;;;6.30;3.50;;;20.70;22.60;;;;;;5128019;27;46546;-77
2023/09/05 09:18:13;;;;;;;5.40;2.90;;;20.80;22.20;;;;;;5117447;27;46490;-81
2023/09/05 09:20:46;;;;;;;6.67;3.23;;;20.70;21.70;;;;;;5130963;27;46626;-79
2023/09/05 09:23:13;;;;;;;6.07;3.37;;;20.80;21.90;;;;;;5129340;27;46959;-80
2023/09/05 09:25:48;;;;;;;8.10;3.63;;;20.90;21.40;;;;;;5126049;27;46820;-80
2023/09/05 09:28:22;;;;;;;6.87;3.03;;;21.00;22.30;;;;;;5124735;27;46612;-79
2023/09/05 09:31:12;;;;;;;7.63;3.43;;;21.00;20.30;;;;;;5124034;27;46571;-79
2023/09/05 09:33:39;;;;;;;6.20;3.07;;;21.00;21.20;;;;;;5129593;27;46506;-79
2023/09/05 09:36:09;;;;;;;11.63;3.30;;;21.10;21.50;;;;;;5127676;27;46489;-81
2023/09/05 09:38:35;;;;;;;9.83;2.73;;;21.20;21.20;;;;;;5127482;27;45863;-81
2023/09/05 09:41:03;;;;;;;7.37;2.73;;;21.30;21.10;;;;;;5127687;27;46447;-80
2023/09/05 09:43:30;;;;;;;7.77;3.40;;;21.30;21.10;;;;;;5125817;27;46728;-80
2023/09/05 09:45:57;;;;;;;5.97;3.00;;;21.40;21.00;;;;;;5127275;27;46495;-81
2023/09/05 09:48:26;;;;;;;5.60;3.27;;;21.40;20.70;;;;;;5127691;27;46589;-80
2023/09/05 09:50:53;;;;;;;5.00;3.47;;;21.40;18.60;;;;;;5129374;27;46741;-79
2023/09/05 09:53:27;;;;;;;6.70;3.50;;;21.40;19.40;;;;;;5129749;27;47052;-82
2023/09/05 09:55:54;;;;;;;5.23;2.80;;;21.40;19.90;;;;;;5134651;27;46960;-82
2023/09/05 09:58:22;;;;;;;7.40;3.13;;;21.60;19.70;;;;;;5129192;27;46435;-79
2023/09/05 10:00:50;;;;;;;5.63;3.03;;;21.70;18.30;;;;;;5116021;27;46449;-80
2023/09/05 10:03:16;;;;;;;8.40;3.30;;;21.70;19.10;;;;;;5130841;27;47400;-81
2023/09/05 10:05:43;;;;;;;8.63;2.93;;;21.90;19.00;;;;;;5111028;27;46529;-80
2023/09/05 10:08:09;;;;;;;6.93;3.00;;;21.90;18.70;;;;;;5126028;27;46618;-77
2023/09/05 10:10:38;;;;;;;4.60;2.67;;;22.20;18.90;;;;;;5100415;27;46605;-79
2023/09/05 10:13:08;;;;;;;5.03;3.00;;;22.10;18.80;;;;;;5129986;27;46579;-79
2023/09/05 10:15:39;;;;;;;7.93;3.23;;;22.40;18.30;;;;;;5114329;27;46352;-79
2023/09/05 10:18:09;;;;;;;7.80;2.87;;;22.20;18.20;;;;;;5111827;27;47396;-79
2023/09/05 10:20:37;;;;;;;5.57;3.00;;;22.20;18.10;;;;;;5129144;27;46451;-83
2023/09/05 10:23:05;;;;;;;5.93;2.80;;;22.70;18.20;;;;;;5127310;27;46427;-82
2023/09/05 10:25:31;;;;;;;6.87;2.80;;;22.40;17.50;;;;;;5123805;27;46787;-82
2023/09/05 10:27:57;;;;;;;12.40;2.97;;;22.60;17.70;;;;;;5127692;27;46553;-79
2023/09/05 10:30:23;;;;;;;8.10;3.13;;;22.70;17.60;;;;;;5127810;27;46736;-81
2023/09/05 10:32:51;;;;;;;7.40;3.40;;;22.60;16.50;;;;;;5132665;27;46696;-80
2023/09/05 10:35:19;;;;;;;5.57;2.93;;;22.60;16.50;;;;;;5131692;27;46904;-79
2023/09/05 10:38:01;;;;;;;8.97;2.67;;;22.50;16.80;;;;;;5134276;27;46452;-79
2023/09/05 10:40:35;;;;;;;5.53;2.40;;;22.60;16.90;;;;;;5118851;27;46617;-80
2023/09/05 10:43:03;;;;;;;8.70;3.00;;;22.70;16.80;;;;;;5131597;27;46976;-83
2023/09/05 10:45:31;;;;;;;4.30;2.73;;;22.60;16.00;;;;;;5117771;27;46524;-80
2023/09/05 10:48:11;;;;;;;4.23;2.53;;;22.70;17.00;;;;;;5133592;27;46516;-82
2023/09/05 10:51:08;;;;;;;4.40;2.40;;;22.70;15.70;;;;;;5132111;27;46514;-78
2023/09/05 10:53:35;;;;;;;5.70;2.70;;;22.80;15.40;;;;;;5131128;27;47525;-80
2023/09/05 10:56:01;;;;;;;5.23;2.47;;;22.90;15.40;;;;;;5134993;27;46531;-82
2023/09/05 10:58:37;;;;;;;5.27;3.10;;;23.00;15.40;;;;;;5137127;27;46740;-80
2023/09/05 11:01:29;;;;;;;6.37;2.77;;;23.10;15.60;;;;;;5132156;27;46707;-81
2023/09/05 11:04:03;;;;;;;5.63;3.00;;;23.20;15.30;;;;;;5111903;27;47283;-81
2023/09/05 11:06:28;;;;;;;3.97;2.80;;;23.70;15.50;;;;;;5129885;27;47835;-77
2023/09/05 11:08:59;;;;;;;6.87;2.70;;;23.30;14.20;;;;;;5134939;27;46463;-80
2023/09/05 11:11:25;;;;;;;5.60;2.50;;;23.20;14.30;;;;;;5130308;27;47367;-80
2023/09/05 11:13:51;;;;;;;7.83;2.63;;;23.20;14.20;;;;;;5129354;27;48566;-78
2023/09/05 11:16:17;;;;;;;5.33;2.90;;;23.20;13.60;;;;;;5139830;27;46579;-81
2023/09/05 11:18:56;;;;;;;4.70;2.63;;;23.50;13.90;;;;;;5126980;27;47686;-77
2023/09/05 11:21:23;;;;;;;6.73;2.80;;;23.30;14.10;;;;;;5118312;27;46465;-79
2023/09/05 11:23:51;;;;;;;6.33;2.83;;;23.40;14.20;;;;;;5135073;27;46472;-80
2023/09/05 11:26:17;;;;;;;5.23;2.60;;;23.80;14.00;;;;;;5133650;27;46779;-80
2023/09/05 11:28:43;;;;;;;5.83;2.90;;;23.50;13.80;;;;;;5116846;27;46430;-79
2023/09/05 11:31:11;;;;;;;6.23;2.77;;;23.70;14.00;;;;;;5133147;27;46840;-79
2023/09/05 11:33:37;;;;;;;4.87;2.40;;;23.60;13.90;;;;;;5123214;27;47245;-79
2023/09/05 11:36:06;;;;;;;8.60;3.10;;;23.60;14.90;;;;;;5135822;27;46455;-79
2023/09/05 11:38:46;;;;;;;8.50;2.70;;;23.60;13.90;;;;;;5118440;27;46790;-79
2023/09/05 11:41:12;;;;;;;5.97;2.90;;;23.70;13.90;;;;;;5117116;27;47569;-80
2023/09/05 11:43:48;;;;;;;8.20;2.73;;;23.60;13.90;;;;;;5133323;27;46427;-79
2023/09/05 11:46:15;;;;;;;6.93;2.43;;;23.60;13.50;;;;;;5111534;27;46624;-78
2023/09/05 11:48:46;;;;;;;4.77;2.83;;;23.60;13.30;;;;;;5130909;27;46899;-77
2023/09/05 11:51:14;;;;;;;4.20;2.20;;;23.70;13.20;;;;;;5113170;27;46614;-82
2023/09/05 11:53:43;;;;;;;7.20;3.00;;;23.80;13.30;;;;;;5131396;27;46472;-82
2023/09/05 11:56:10;;;;;;;4.60;2.40;;;23.70;13.20;;;;;;5113493;27;46755;-81
2023/09/05 11:58:36;;;;;;;5.77;2.63;;;23.80;13.30;;;;;;5131845;27;46907;-83
2023/09/05 12:01:02;;;;;;;5.53;2.80;;;23.80;12.60;;;;;;5132623;27;46520;-80
2023/09/05 12:03:35;;;;;;;5.03;2.70;;;23.90;13.40;;;;;;5135412;27;46463;-81
2023/09/05 12:06:02;;;;;;;6.53;2.63;;;23.90;13.00;;;;;;5134186;27;46491;-80
2023/09/05 12:08:28;;;;;;;5.03;2.63;;;23.80;12.40;;;;;;5129305;27;46525;-82
2023/09/05 12:10:55;;;;;;;5.70;2.90;;;24.00;11.70;;;;;;5131677;27;46705;-80
2023/09/05 12:13:43;;;;;;;6.67;2.53;;;23.90;12.50;;;;;;5131428;27;46536;-78
2023/09/05 12:16:10;;;;;;;5.43;2.70;;;24.00;12.90;;;;;;5122038;27;46956;-84
2023/09/05 12:18:36;;;;;;;5.90;2.50;;;24.10;12.70;;;;;;5112317;27;46493;-79
2023/09/05 12:21:01;;;;;;;4.13;2.50;;;24.10;10.20;;;;;;5129535;27;46426;-80
2023/09/05 12:23:28;;;;;;;5.80;2.47;;;24.10;10.80;;;;;;5127858;27;46456;-81
2023/09/05 12:25:54;;;;;;;7.40;3.10;;;24.10;10.70;;;;;;5127473;27;46700;-81
2023/09/05 12:28:22;;;;;;;3.60;2.57;;;24.20;10.90;;;;;;5109172;27;45794;-82
2023/09/05 12:30:48;;;;;;;9.80;2.53;;;24.30;10.30;;;;;;5113648;27;46604;-82
2023/09/05 12:33:15;;;;;;;5.23;2.50;;;24.30;11.10;;;;;;5108110;27;47343;-80
2023/09/05 12:35:40;;;;;;;8.10;2.60;;;24.40;10.60;;;;;;5127476;27;46619;-82
2023/09/05 12:38:10;;;;;;;5.10;2.80;;;24.40;10.40;;;;;;5129038;27;46790;-85
2023/09/05 12:40:36;;;;;;;7.27;2.17;;;24.40;9.70;;;;;;5128808;27;46400;-85
2023/09/05 12:43:02;;;;;;;5.40;2.67;;;24.40;9.30;;;;;;5110247;27;48146;-80
2023/09/05 12:45:27;;;;;;;5.50;2.20;;;24.40;9.20;;;;;;5109562;27;46125;-84
2023/09/05 12:47:53;;;;;;;12.93;3.60;;;24.40;9.30;;;;;;5130913;27;46509;-85